Time;durP1;ratioP1;P1;durP2;ratioP2;P2;SDS_P1;SDS_P2;PMS_P1;PMS_P2;Temp;Humidity;BMP_temperature;BMP_pressure;BME280_temperature;BME280_humidity;BME280_pressure;Samples;Min_cycle;Max_cycle;Signal;HPM_P1;HPM_P2
2022/05/10 00:01:50;;;;;;;6.15;5.93;;;;;;;11.75;100.00;101449.19;5031325;28;20487;-62
2022/05/10 00:04:16;;;;;;;6.30;6.00;;;;;;;11.84;100.00;101450.91;5033211;28;20041;-63
2022/05/10 00:06:44;;;;;;;6.47;6.18;;;;;;;11.71;100.00;101431.06;5033439;28;20041;-62
2022/05/10 00:09:11;;;;;;;6.20;5.90;;;;;;;11.87;100.00;101458.56;5021316;28;20030;-62
2022/05/10 00:11:38;;;;;;;6.10;5.90;;;;;;;11.85;100.00;101457.06;5034472;28;20108;-62
2022/05/10 00:14:04;;;;;;;6.10;5.90;;;;;;;11.81;100.00;101442.41;5026404;28;20021;-61
2022/05/10 00:16:32;;;;;;;6.38;6.07;;;;;;;11.77;100.00;101443.72;5034527;28;20112;-62
2022/05/10 00:18:58;;;;;;;6.50;6.20;;;;;;;11.83;100.00;101443.09;5031527;28;20033;-62
2022/05/10 00:21:25;;;;;;;6.43;6.13;;;;;;;11.85;100.00;101444.59;5033507;28;20073;-61
2022/05/10 00:23:51;;;;;;;6.00;5.80;;;;;;;11.88;100.00;101438.13;5027594;28;20021;-61
2022/05/10 00:26:17;;;;;;;6.10;5.90;;;;;;;11.84;100.00;101444.78;5034979;28;20017;-60
2022/05/10 00:28:42;;;;;;;6.28;5.97;;;;;;;11.94;100.00;101444.63;5034961;28;20022;-62
2022/05/10 00:31:10;;;;;;;6.00;5.80;;;;;;;11.88;100.00;101440.78;5034795;28;20045;-62
2022/05/10 00:33:37;;;;;;;5.97;5.78;;;;;;;11.81;100.00;101440.59;5043042;28;20025;-61
2022/05/10 00:36:04;;;;;;;6.00;5.80;;;;;;;11.89;100.00;101445.09;5023602;28;20064;-61
2022/05/10 00:38:39;;;;;;;6.47;6.18;;;;;;;11.88;100.00;101440.78;5031106;28;20029;-62
2022/05/10 00:41:11;;;;;;;6.18;5.95;;;;;;;11.88;100.00;101438.13;5034229;28;20096;-61
2022/05/10 00:43:42;;;;;;;5.90;5.70;;;;;;;11.87;100.00;101434.63;5033763;28;20045;-62
2022/05/10 00:46:13;;;;;;;5.80;5.60;;;;;;;11.87;100.00;101437.28;5033859;28;20025;-61
2022/05/10 00:48:56;;;;;;;6.13;5.88;;;;;;;11.85;100.00;101427.81;5033811;28;20471;-62
2022/05/10 00:51:28;;;;;;;6.18;5.90;;;;;;;11.89;100.00;101431.81;5028323;28;20029;-62
2022/05/10 00:54:19;;;;;;;6.00;5.80;;;;;;;11.88;100.00;101430.16;5033998;28;20500;-62
2022/05/10 00:57:14;;;;;;;6.35;6.05;;;;;;;11.84;100.00;101440.28;5032756;28;20037;-61
2022/05/10 01:00:11;;;;;;;5.82;5.63;;;;;;;11.81;100.00;101440.59;5033508;28;20496;-61
2022/05/10 01:02:48;;;;;;;6.30;6.00;;;;;;;11.80;100.00;101430.94;5030546;28;20037;-62
2022/05/10 01:05:49;;;;;;;5.90;5.70;;;;;;;11.78;100.00;101435.56;5033444;28;20060;-62
2022/05/10 01:08:14;;;;;;;6.00;5.80;;;;;;;11.85;100.00;101433.13;5033632;28;20033;-61
2022/05/10 01:10:47;;;;;;;6.20;5.90;;;;;;;11.83;100.00;101430.66;5015257;28;20034;-62
2022/05/10 01:13:19;;;;;;;6.47;6.18;;;;;;;11.87;100.00;101431.97;5030837;28;20220;-62
2022/05/10 01:16:01;;;;;;;5.90;5.70;;;;;;;11.85;100.00;101419.84;5027128;28;20013;-62
2022/05/10 01:18:26;;;;;;;6.43;6.13;;;;;;;11.86;100.00;101422.34;5033458;28;20026;-62
2022/05/10 01:20:56;;;;;;;6.07;5.88;;;;;;;11.92;100.00;101420.03;5033545;28;20036;-62
2022/05/10 01:23:50;;;;;;;6.30;6.00;;;;;;;11.92;100.00;101423.53;5033650;28;20029;-62
2022/05/10 01:26:30;;;;;;;5.73;5.53;;;;;;;11.91;100.00;101419.19;5044496;28;20033;-62
2022/05/10 01:29:04;;;;;;;6.15;5.93;;;;;;;11.89;100.00;101413.19;5031671;28;20278;-62
2022/05/10 01:31:39;;;;;;;6.13;5.93;;;;;;;11.86;100.00;101413.53;5033098;28;20392;-63
2022/05/10 01:34:10;;;;;;;6.53;6.22;;;;;;;11.89;100.00;101415.84;5032814;28;20024;-62
2022/05/10 01:36:43;;;;;;;5.90;5.70;;;;;;;11.92;100.00;101417.38;5019686;28;20394;-62
2022/05/10 01:39:35;;;;;;;6.10;5.90;;;;;;;11.93;100.00;101419.03;5033039;28;20112;-63
2022/05/10 01:42:09;;;;;;;5.88;5.68;;;;;;;11.92;100.00;101415.53;5027164;28;20036;-62
2022/05/10 01:44:49;;;;;;;5.78;5.57;;;;;;;11.89;100.00;101408.69;5020356;28;20037;-61
2022/05/10 01:47:23;;;;;;;5.97;5.78;;;;;;;11.89;100.00;101414.03;5032996;28;20090;-61
2022/05/10 01:50:02;;;;;;;6.10;5.90;;;;;;;11.87;100.00;101413.38;5031126;28;20040;-61
2022/05/10 01:52:44;;;;;;;5.97;5.78;;;;;;;11.81;100.00;101411.34;5032774;28;20044;-61
2022/05/10 01:55:25;;;;;;;6.40;6.10;;;;;;;11.75;100.00;101416.44;5032593;28;20055;-62
2022/05/10 01:57:53;;;;;;;6.00;5.80;;;;;;;11.72;100.00;101408.78;5048021;28;20436;-61
2022/05/10 02:00:22;;;;;;;6.40;6.10;;;;;;;11.74;100.00;101410.28;5030631;28;20044;-62
2022/05/10 02:02:56;;;;;;;6.10;5.90;;;;;;;11.68;100.00;101418.06;5032633;28;20388;-62
2022/05/10 02:05:34;;;;;;;;;;;;;;;11.73;100.00;101415.78;5032235;28;20421;-66
2022/05/10 02:08:11;;;;;;;6.00;5.80;;;;;;;11.67;100.00;101422.56;5032422;28;19913;-61
2022/05/10 02:10:40;;;;;;;6.30;6.00;;;;;;;11.52;100.00;101416.19;5031717;28;20029;-62
2022/05/10 02:13:13;;;;;;;6.30;6.00;;;;;;;11.53;100.00;101417.84;5025093;28;20033;-62
2022/05/10 02:16:24;;;;;;;6.50;6.20;;;;;;;11.59;100.00;101427.84;5028416;28;20025;-62
2022/05/10 02:18:53;;;;;;;6.18;5.90;;;;;;;11.52;100.00;101426.81;5028579;28;20041;-62
2022/05/10 02:21:27;;;;;;;6.18;5.90;;;;;;;11.50;100.00;101426.97;5030941;28;20108;-61
2022/05/10 02:24:05;;;;;;;5.90;5.70;;;;;;;11.52;100.00;101424.16;5020560;28;20120;-61
2022/05/10 02:26:39;;;;;;;6.20;5.93;;;;;;;11.47;100.00;101418.50;5027236;28;20091;-61
2022/05/10 02:29:13;;;;;;;6.07;5.88;;;;;;;11.52;100.00;101422.31;5030763;28;20033;-61
2022/05/10 02:34:39;;;;;;;6.45;6.15;;;;;;;11.51;100.00;101428.63;5021320;28;19967;-61
2022/05/10 02:37:04;;;;;;;6.45;6.15;;;;;;;11.56;100.00;101433.47;5032039;28;20053;-61
2022/05/10 02:39:30;;;;;;;6.05;5.85;;;;;;;11.57;100.00;101422.69;5031508;28;20523;-62
2022/05/10 02:41:57;;;;;;;6.45;6.15;;;;;;;11.53;100.00;101424.00;5030672;28;20022;-62
2022/05/10 02:44:23;;;;;;;6.30;6.00;;;;;;;11.64;100.00;101425.53;5012074;28;20124;-62
2022/05/10 02:46:48;;;;;;;5.80;5.60;;;;;;;11.69;100.00;101431.22;5019584;28;20029;-61
2022/05/10 02:49:14;;;;;;;6.05;5.85;;;;;;;11.75;100.00;101435.91;5031888;28;20459;-61
2022/05/10 02:51:39;;;;;;;7.13;6.82;;;;;;;11.91;100.00;101435.16;5031051;28;20029;-62
2022/05/10 02:54:05;;;;;;;5.90;5.70;;;;;;;12.08;100.00;101434.19;5031815;28;20104;-62
2022/05/10 02:56:31;;;;;;;6.00;5.80;;;;;;;12.18;100.00;101440.19;5030168;28;20029;-62
2022/05/10 02:59:15;;;;;;;5.90;5.70;;;;;;;12.39;100.00;101442.41;5031720;28;20026;-61
2022/05/10 03:01:53;;;;;;;6.57;6.27;;;;;;;12.50;100.00;101453.75;5029910;28;20048;-62
2022/05/10 03:04:18;;;;;;;6.28;6.00;;;;;;;12.59;100.00;101458.06;5030438;28;20091;-62
2022/05/10 03:06:46;;;;;;;6.22;5.93;;;;;;;12.85;100.00;101452.56;5031782;28;20025;-62
2022/05/10 03:09:12;;;;;;;6.47;6.18;;;;;;;13.06;100.00;101449.41;5031551;28;20021;-62
2022/05/10 03:11:38;;;;;;;6.75;6.45;;;;;;;13.29;100.00;101450.41;5030243;28;20450;-62
2022/05/10 03:14:06;;;;;;;6.30;6.00;;;;;;;13.50;100.00;101447.19;5018252;28;20030;-62
2022/05/10 03:16:32;;;;;;;6.47;6.18;;;;;;;13.72;100.00;101450.94;5019980;28;20021;-62
2022/05/10 03:18:58;;;;;;;6.60;6.30;;;;;;;13.95;100.00;101459.84;5029340;28;20381;-62
2022/05/10 03:21:24;;;;;;;6.50;6.20;;;;;;;14.45;100.00;101458.56;5023499;28;20037;-61
2022/05/10 03:23:50;;;;;;;6.32;6.03;;;;;;;14.64;100.00;101467.97;5031066;28;20491;-61
2022/05/10 03:26:21;;;;;;;6.38;6.07;;;;;;;14.17;100.00;101458.22;5031476;28;20413;-61
2022/05/10 03:28:47;;;;;;;6.50;6.20;;;;;;;13.63;100.00;101457.31;5030315;28;20021;-61
2022/05/10 03:31:16;;;;;;;6.22;6.00;;;;;;;13.55;100.00;101461.66;5026007;28;20029;-62
2022/05/10 03:33:42;;;;;;;6.15;5.95;;;;;;;13.40;100.00;101459.88;5033528;28;20033;-62
2022/05/10 03:36:07;;;;;;;6.55;6.25;;;;;;;13.19;100.00;101471.88;5035351;28;20562;-61
2022/05/10 03:38:33;;;;;;;7.05;6.75;;;;;;;13.02;100.00;101472.06;5033734;28;20104;-63
2022/05/10 03:40:58;;;;;;;6.90;6.60;;;;;;;13.43;100.00;101478.19;5034541;28;20056;-62
2022/05/10 03:43:26;;;;;;;6.55;6.25;;;;;;;13.35;100.00;101478.22;5034567;28;20053;-62
2022/05/10 03:45:51;;;;;;;6.72;6.43;;;;;;;13.40;100.00;101478.53;5033561;28;20025;-61
2022/05/10 03:48:17;;;;;;;6.50;6.20;;;;;;;13.31;100.00;101477.72;5035150;28;20025;-63
2022/05/10 03:50:43;;;;;;;5.93;5.72;;;;;;;13.54;100.00;101475.19;5033294;28;20025;-62
2022/05/10 03:53:09;;;;;;;6.35;6.05;;;;;;;13.46;100.00;101468.03;5033900;28;20034;-63
2022/05/10 03:55:34;;;;;;;6.68;6.38;;;;;;;13.48;100.00;101474.00;5034467;28;20036;-63
2022/05/10 03:58:03;;;;;;;6.32;6.07;;;;;;;13.49;100.00;101470.34;5032669;28;20496;-63
2022/05/10 04:00:29;;;;;;;6.30;6.00;;;;;;;13.34;100.00;101469.38;5029523;28;20049;-63
2022/05/10 04:02:56;;;;;;;6.40;6.10;;;;;;;13.51;100.00;101471.03;5037997;28;20034;-63
2022/05/10 04:05:23;;;;;;;6.35;6.05;;;;;;;13.51;100.00;101462.16;5032141;28;20030;-64
2022/05/10 04:07:49;;;;;;;6.78;6.47;;;;;;;13.65;100.00;101469.47;5033087;28;20096;-64
2022/05/10 04:10:16;;;;;;;6.60;6.30;;;;;;;13.59;100.00;101467.50;5033982;28;20555;-63
2022/05/10 04:12:42;;;;;;;6.55;6.25;;;;;;;13.70;100.00;101469.78;5034071;28;20481;-64
2022/05/10 04:15:12;;;;;;;6.40;6.10;;;;;;;13.98;100.00;101472.84;5035784;28;20033;-63
2022/05/10 04:17:37;;;;;;;7.55;7.25;;;;;;;14.14;100.00;101468.44;5033733;28;20469;-63
2022/05/10 04:20:06;;;;;;;6.47;6.18;;;;;;;14.28;100.00;101473.84;5034608;28;20033;-62
2022/05/10 04:22:32;;;;;;;6.15;5.95;;;;;;;14.45;100.00;101474.56;5033587;28;20061;-63
2022/05/10 04:24:57;;;;;;;6.53;6.22;;;;;;;14.96;100.00;101456.19;5033720;28;20458;-63
2022/05/10 04:27:23;;;;;;;6.57;6.28;;;;;;;16.89;100.00;101488.94;5034063;28;20028;-63
2022/05/10 04:29:48;;;;;;;6.50;6.20;;;;;;;17.01;100.00;101488.22;5034327;28;20025;-63
2022/05/10 04:32:14;;;;;;;6.75;6.45;;;;;;;18.37;94.74;101483.25;5034134;28;20029;-63
2022/05/10 04:34:39;;;;;;;7.20;6.85;;;;;;;19.42;85.79;101492.44;5032281;28;20030;-63
2022/05/10 04:37:05;;;;;;;6.53;6.22;;;;;;;17.46;96.53;101482.59;5032333;28;20057;-62
2022/05/10 04:41:24;;;;;;;7.00;6.70;;;;;;;16.73;100.00;101487.34;5032739;28;20547;-64
2022/05/10 04:42:16;;;;;;;6.72;6.43;;;;;;;16.41;100.00;101489.47;5030984;28;20105;-70
2022/05/10 04:44:41;;;;;;;6.90;6.60;;;;;;;16.08;100.00;101488.25;5026991;28;20116;-63
2022/05/10 04:47:07;;;;;;;6.72;6.43;;;;;;;15.99;100.00;101487.53;5036339;28;20027;-62
2022/05/10 04:49:32;;;;;;;6.70;6.40;;;;;;;15.85;100.00;101497.25;5026149;28;20109;-63
2022/05/10 04:51:58;;;;;;;6.65;6.35;;;;;;;15.66;100.00;101498.66;5031020;28;20088;-62
2022/05/10 04:54:23;;;;;;;6.90;6.60;;;;;;;15.48;100.00;101503.47;5027156;28;20110;-64
2022/05/10 04:56:49;;;;;;;6.80;6.50;;;;;;;15.62;100.00;101509.88;5032873;28;20044;-63
2022/05/10 04:59:14;;;;;;;7.28;6.97;;;;;;;15.69;100.00;101508.97;5031588;28;20484;-62
2022/05/10 05:01:40;;;;;;;7.28;6.97;;;;;;;15.72;100.00;101515.81;5030176;28;20041;-62
2022/05/10 05:04:05;;;;;;;6.90;6.60;;;;;;;15.89;100.00;101505.75;5037707;28;20039;-62
2022/05/10 05:06:31;;;;;;;6.93;6.63;;;;;;;16.04;100.00;101506.56;5032651;28;20041;-62
2022/05/10 05:08:57;;;;;;;6.68;6.38;;;;;;;16.44;100.00;101515.03;5033377;28;20080;-62
2022/05/10 05:11:23;;;;;;;6.68;6.38;;;;;;;16.91;98.82;101505.69;5036874;28;20038;-63
2022/05/10 05:13:49;;;;;;;6.55;6.25;;;;;;;17.62;93.67;101509.91;5048578;28;20025;-63
2022/05/10 05:16:14;;;;;;;6.80;6.50;;;;;;;17.26;92.56;101510.13;5033407;28;20040;-62
2022/05/10 05:18:40;;;;;;;6.68;6.38;;;;;;;17.03;95.52;101510.31;5021998;28;20029;-63
2022/05/10 05:21:06;;;;;;;6.68;6.38;;;;;;;17.13;95.90;101507.31;5032521;28;20033;-62
2022/05/10 05:23:31;;;;;;;6.88;6.57;;;;;;;17.33;93.99;101508.31;5032140;28;20037;-63
2022/05/10 05:25:57;;;;;;;6.55;6.25;;;;;;;17.52;93.25;101514.81;5033021;28;20354;-63
2022/05/10 05:28:22;;;;;;;6.80;6.50;;;;;;;17.58;93.08;101518.56;5032998;28;20036;-63
2022/05/10 05:30:48;;;;;;;6.65;6.35;;;;;;;16.63;95.42;101517.13;5031546;28;20503;-61
2022/05/10 05:33:14;;;;;;;7.03;6.72;;;;;;;16.56;96.91;101522.41;5027476;28;20033;-62
2022/05/10 05:35:40;;;;;;;6.75;6.45;;;;;;;16.89;95.02;101527.28;5025305;28;20083;-63
2022/05/10 05:38:07;;;;;;;6.70;6.40;;;;;;;16.80;94.60;101525.78;5030142;28;20017;-63
2022/05/10 05:40:33;;;;;;;7.22;6.93;;;;;;;16.52;94.18;101522.97;5032672;28;20029;-63
2022/05/10 05:42:59;;;;;;;6.63;6.32;;;;;;;17.12;92.65;101527.13;5023794;28;20394;-63
2022/05/10 05:45:25;;;;;;;7.28;6.97;;;;;;;16.67;93.87;101521.09;5031155;28;20091;-63
2022/05/10 05:47:51;;;;;;;7.28;6.97;;;;;;;17.59;88.30;101520.22;5031968;28;20204;-63
2022/05/10 05:50:19;;;;;;;7.20;6.90;;;;;;;18.81;82.72;101523.06;5031646;28;20154;-63
2022/05/10 05:52:46;;;;;;;6.90;6.60;;;;;;;21.10;72.11;101520.09;5032891;28;20029;-60
2022/05/10 05:55:12;;;;;;;6.90;6.60;;;;;;;21.09;70.95;101524.66;5022481;28;20025;-64
2022/05/10 05:57:38;;;;;;;6.75;6.45;;;;;;;20.08;71.13;101528.13;5031868;28;20026;-63
2022/05/10 06:00:11;;;;;;;6.57;6.28;;;;;;;20.70;70.39;101529.28;5032384;28;20022;-63
2022/05/10 06:02:37;;;;;;;6.95;6.65;;;;;;;21.96;65.01;101530.06;5032266;28;20032;-63
2022/05/10 06:05:03;;;;;;;7.00;6.70;;;;;;;23.80;59.50;101532.97;5029186;28;20030;-63
2022/05/10 06:07:28;;;;;;;7.00;6.70;;;;;;;23.49;57.32;101525.97;5031563;28;20075;-64
2022/05/10 06:09:54;;;;;;;6.78;6.47;;;;;;;26.16;49.29;101541.09;5039725;28;20033;-63
2022/05/10 06:12:20;;;;;;;7.03;6.72;;;;;;;25.71;47.85;101544.03;5031298;28;20485;-62
2022/05/10 06:14:48;;;;;;;7.20;6.90;;;;;;;27.44;44.61;101543.13;5031587;28;20084;-64
2022/05/10 06:17:15;;;;;;;7.03;6.72;;;;;;;25.58;46.68;101549.81;5009515;28;20017;-62
2022/05/10 06:19:42;;;;;;;7.03;6.72;;;;;;;26.59;42.92;101557.66;5019219;28;20033;-63
2022/05/10 06:22:10;;;;;;;7.00;6.70;;;;;;;27.13;41.14;101558.44;5025640;28;20029;-62
2022/05/10 06:24:35;;;;;;;7.10;6.80;;;;;;;28.87;37.34;101560.09;5031351;28;20101;-63
2022/05/10 06:27:03;;;;;;;7.10;6.80;;;;;;;28.04;37.91;101562.84;5018739;28;20125;-63
2022/05/10 06:29:29;;;;;;;6.93;6.63;;;;;;;26.68;39.81;101556.91;5022952;28;20113;-64
2022/05/10 06:31:54;;;;;;;6.82;6.53;;;;;;;25.54;42.83;101562.22;5027503;28;20041;-63
2022/05/10 06:34:20;;;;;;;6.78;6.47;;;;;;;23.87;42.81;101553.44;5025912;28;20029;-62
2022/05/10 06:36:46;;;;;;;6.88;6.57;;;;;;;22.48;46.12;101547.53;5027145;28;20026;-63
2022/05/10 06:39:11;;;;;;;7.00;6.70;;;;;;;25.35;43.14;101548.09;5031492;28;20013;-64
2022/05/10 06:41:37;;;;;;;7.05;6.75;;;;;;;27.65;38.02;101552.25;5022446;28;20033;-64
2022/05/10 06:44:04;;;;;;;7.20;6.90;;;;;;;28.46;36.61;101551.84;5030197;28;20060;-62
2022/05/10 06:46:32;;;;;;;7.00;6.70;;;;;;;27.26;38.01;101551.75;5019837;28;20510;-63
2022/05/10 06:48:58;;;;;;;7.20;6.90;;;;;;;28.53;35.56;101554.31;5025145;28;20030;-63
2022/05/10 06:51:25;;;;;;;7.00;6.70;;;;;;;23.62;44.98;101548.28;5030048;28;20071;-63
2022/05/10 06:53:51;;;;;;;7.00;6.70;;;;;;;24.47;42.63;101552.25;5027061;28;20029;-63
2022/05/10 06:56:17;;;;;;;7.10;6.80;;;;;;;23.51;42.63;101548.25;5027866;28;20508;-63
2022/05/10 06:58:43;;;;;;;7.60;7.30;;;;;;;22.28;44.93;101541.56;5024494;28;20662;-66
2022/05/10 07:01:12;;;;;;;7.20;6.90;;;;;;;22.67;43.91;101548.31;5029357;28;20035;-66
2022/05/10 07:03:47;;;;;;;7.38;7.07;;;;;;;23.08;42.72;101546.69;5028089;28;20441;-65
2022/05/10 07:06:16;;;;;;;7.20;6.90;;;;;;;22.82;44.58;101548.69;5028566;28;20430;-66
2022/05/10 07:08:41;;;;;;;7.10;6.80;;;;;;;22.64;43.27;101551.47;5021659;28;20033;-63
2022/05/10 07:11:07;;;;;;;7.53;7.22;;;;;;;22.68;43.93;101544.53;5023654;28;20142;-62
2022/05/10 07:13:33;;;;;;;7.18;6.88;;;;;;;22.61;43.71;101546.50;5024970;28;20041;-64
2022/05/10 07:15:58;;;;;;;7.40;7.10;;;;;;;21.33;46.03;101546.50;5022251;28;20052;-63
2022/05/10 07:18:25;;;;;;;7.30;7.00;;;;;;;22.43;44.06;101546.56;5027877;28;20492;-62
2022/05/10 07:20:51;;;;;;;7.32;7.03;;;;;;;22.48;43.16;101547.53;5026353;28;20053;-65
2022/05/10 07:23:29;;;;;;;6.80;6.50;;;;;;;22.38;43.77;101541.84;5039574;28;20167;-64
2022/05/10 07:25:55;;;;;;;6.95;6.65;;;;;;;23.21;40.11;101553.75;5025562;28;20033;-63
2022/05/10 07:28:21;;;;;;;6.80;6.50;;;;;;;22.70;41.51;101547.84;5031057;28;20025;-64
2022/05/10 07:30:47;;;;;;;6.88;6.57;;;;;;;22.99;39.21;101556.19;5029891;28;20021;-64
2022/05/10 07:33:13;;;;;;;6.85;6.55;;;;;;;23.12;39.07;101545.16;5022576;28;20370;-65
2022/05/10 07:38:23;;;;;;;7.20;6.90;;;;;;;23.60;35.76;101554.97;5028764;28;20033;-64
2022/05/10 07:40:49;;;;;;;6.82;6.53;;;;;;;22.97;35.41;101552.88;5030983;28;20480;-64
2022/05/10 07:43:17;;;;;;;7.00;6.70;;;;;;;24.51;34.33;101558.81;5024988;28;20053;-64
2022/05/10 07:45:47;;;;;;;6.97;6.68;;;;;;;27.09;28.98;101551.84;5026287;28;20106;-64
2022/05/10 07:48:13;;;;;;;6.88;6.57;;;;;;;27.38;27.74;101562.44;5019735;28;20030;-64
2022/05/10 07:50:39;;;;;;;7.20;6.90;;;;;;;28.78;27.92;101554.34;5026286;28;20469;-65
2022/05/10 07:53:08;;;;;;;7.10;6.80;;;;;;;29.24;27.08;101556.31;5021781;28;20037;-63
2022/05/10 07:55:34;;;;;;;7.30;7.00;;;;;;;29.50;26.76;101551.59;5031736;28;20022;-65
2022/05/10 07:58:00;;;;;;;6.82;6.53;;;;;;;27.17;29.39;101553.28;5029950;28;20017;-64
2022/05/10 08:00:25;;;;;;;7.00;6.70;;;;;;;24.07;32.68;101552.22;5020047;28;20033;-65
2022/05/10 08:02:51;;;;;;;7.18;6.88;;;;;;;25.95;30.65;101554.69;5023056;28;20044;-64
2022/05/10 08:05:21;;;;;;;7.20;6.90;;;;;;;25.78;31.80;101557.44;5030769;28;20592;-63
2022/05/10 08:07:47;;;;;;;7.10;6.80;;;;;;;24.58;30.45;101548.66;5031277;28;20076;-64
2022/05/10 08:10:14;;;;;;;7.00;6.70;;;;;;;21.90;35.54;101544.50;5030976;28;20025;-65
2022/05/10 08:12:39;;;;;;;7.00;6.70;;;;;;;24.16;33.94;101546.16;5030043;28;20037;-65
2022/05/10 08:15:05;;;;;;;7.05;6.75;;;;;;;23.26;34.98;101541.16;5020559;28;20037;-65
2022/05/10 08:17:31;;;;;;;7.20;6.90;;;;;;;22.10;38.39;101538.88;5030878;28;20093;-64
2022/05/10 08:19:58;;;;;;;7.10;6.80;;;;;;;25.02;33.45;101541.56;5022807;28;20109;-64
2022/05/10 08:22:23;;;;;;;6.95;6.65;;;;;;;24.71;33.03;101542.09;5032534;28;20013;-63
2022/05/10 08:24:49;;;;;;;6.82;6.53;;;;;;;26.93;30.69;101539.16;5034205;28;20033;-65
2022/05/10 08:27:15;;;;;;;6.85;6.55;;;;;;;25.67;33.19;101537.41;5033906;28;20021;-64
2022/05/10 08:29:41;;;;;;;7.00;6.70;;;;;;;27.04;30.91;101531.94;5034206;28;20101;-64
2022/05/10 08:32:08;;;;;;;7.10;6.80;;;;;;;27.24;30.25;101538.34;5034178;28;20036;-65
2022/05/10 08:34:35;;;;;;;6.88;6.57;;;;;;;25.92;31.98;101541.56;5033901;28;20021;-65
2022/05/10 08:37:04;;;;;;;7.00;6.70;;;;;;;24.86;33.85;101534.22;5027399;28;20412;-67
2022/05/10 08:39:30;;;;;;;7.00;6.70;;;;;;;25.27;33.08;101535.75;5033873;28;20032;-65
2022/05/10 08:42:00;;;;;;;7.10;6.80;;;;;;;24.47;34.53;101528.66;5034169;28;20059;-66
2022/05/10 08:44:29;;;;;;;7.30;7.00;;;;;;;24.53;33.16;101519.56;5033421;28;20124;-66
2022/05/10 08:47:00;;;;;;;6.95;6.65;;;;;;;24.62;33.72;101528.13;5032028;28;20510;-66
2022/05/10 08:49:51;;;;;;;7.05;6.75;;;;;;;24.00;35.42;101519.81;5024760;28;20473;-66
2022/05/10 08:52:17;;;;;;;7.00;6.70;;;;;;;24.59;34.38;101520.44;5025994;28;20017;-66
2022/05/10 08:54:44;;;;;;;7.18;6.88;;;;;;;24.76;32.82;101524.03;5033717;28;20436;-65
2022/05/10 08:57:12;;;;;;;6.80;6.50;;;;;;;24.68;32.35;101527.16;5030243;28;20049;-64
2022/05/10 09:00:05;;;;;;;7.05;6.75;;;;;;;25.59;31.30;101524.28;5033609;28;20077;-65
2022/05/10 09:02:50;;;;;;;6.85;6.55;;;;;;;25.66;30.37;101519.47;5022381;28;20044;-64
2022/05/10 09:05:28;;;;;;;7.15;6.85;;;;;;;25.39;29.72;101522.06;5025857;28;20029;-64
2022/05/10 09:08:17;;;;;;;6.70;6.40;;;;;;;25.86;29.90;101514.34;5034181;28;20485;-64
2022/05/10 09:10:51;;;;;;;6.88;6.57;;;;;;;25.38;28.63;101515.00;5029592;28;20029;-64
2022/05/10 09:13:18;;;;;;;;;;;;;;;25.67;27.79;101510.25;5032154;28;20029;-63
2022/05/10 09:15:51;;;;;;;7.15;6.85;;;;;;;23.80;30.01;101497.75;5032441;28;20035;-63
2022/05/10 09:18:25;;;;;;;7.20;6.90;;;;;;;25.42;28.44;101505.28;5025530;28;20110;-67
2022/05/10 09:21:11;;;;;;;7.10;6.80;;;;;;;25.58;28.15;101499.00;5025827;28;20029;-65
2022/05/10 09:23:58;;;;;;;7.00;6.70;;;;;;;24.34;31.42;101495.56;5028852;28;20025;-65
2022/05/10 09:26:31;;;;;;;6.88;6.57;;;;;;;24.23;31.30;101491.81;5030168;28;20075;-66
2022/05/10 09:29:07;;;;;;;7.32;7.03;;;;;;;24.15;29.94;101489.47;5032668;28;20029;-67
2022/05/10 09:37:31;;;;;;;7.05;6.75;;;;;;;20.00;31.63;101479.88;5028854;28;20056;-66
2022/05/10 09:39:57;;;;;;;6.60;6.30;;;;;;;20.42;31.64;101488.38;5029216;28;20079;-66
2022/05/10 09:42:31;;;;;;;7.03;6.72;;;;;;;19.52;32.22;101485.56;5028974;28;20061;-66
2022/05/10 09:45:17;;;;;;;7.00;6.70;;;;;;;19.82;31.95;101468.97;5030640;28;20119;-66
2022/05/10 09:48:10;;;;;;;7.15;6.85;;;;;;;19.78;31.29;101481.22;5027796;28;20033;-65
2022/05/10 09:50:47;;;;;;;6.90;6.60;;;;;;;20.28;29.91;101470.63;5025890;28;20037;-66
2022/05/10 09:53:12;;;;;;;7.00;6.70;;;;;;;19.31;29.65;101462.44;5031435;28;20595;-67
2022/05/10 09:55:40;;;;;;;6.93;6.63;;;;;;;20.37;28.81;101462.06;5029085;28;20040;-65
2022/05/10 09:58:14;;;;;;;6.97;6.68;;;;;;;20.72;28.84;101471.63;5024886;28;20022;-65
2022/05/10 10:00:45;;;;;;;7.18;6.88;;;;;;;21.53;27.99;101463.44;5016807;28;20025;-66
2022/05/10 10:03:30;;;;;;;7.07;6.78;;;;;;;20.66;28.69;101457.97;5030042;28;20033;-64
2022/05/10 10:06:11;;;;;;;6.93;6.63;;;;;;;21.90;27.55;101447.22;5030114;28;20021;-66
2022/05/10 10:08:57;;;;;;;6.80;6.50;;;;;;;21.25;28.40;101453.94;5027183;28;20548;-65
2022/05/10 10:11:24;;;;;;;6.90;6.60;;;;;;;21.48;27.46;101441.69;5029829;28;20076;-64
2022/05/10 10:14:04;;;;;;;6.85;6.55;;;;;;;22.07;26.38;101440.13;5029071;28;20116;-65
2022/05/10 10:16:48;;;;;;;6.90;6.60;;;;;;;21.65;28.77;101431.94;5030202;28;20033;-65
2022/05/10 10:19:25;;;;;;;6.67;6.37;;;;;;;20.46;29.79;101437.59;5025137;28;20033;-64
2022/05/10 10:22:11;;;;;;;6.85;6.55;;;;;;;21.17;29.87;101439.91;5026331;28;20083;-64
2022/05/10 10:25:15;;;;;;;6.68;6.38;;;;;;;21.09;31.00;101432.94;5031751;28;20033;-63
2022/05/10 10:27:58;;;;;;;6.83;6.53;;;;;;;20.93;30.90;101434.31;5020002;28;20045;-64
2022/05/10 10:30:37;;;;;;;7.20;6.90;;;;;;;20.76;30.83;101441.28;5029587;28;20048;-61
2022/05/10 10:33:31;;;;;;;6.95;6.65;;;;;;;20.91;30.76;101424.78;5027462;28;20025;-63
2022/05/10 10:36:03;;;;;;;7.00;6.70;;;;;;;20.56;31.46;101427.13;5029641;28;20018;-64
2022/05/10 10:38:51;;;;;;;6.93;6.63;;;;;;;21.20;30.16;101423.25;5025734;28;20033;-65
2022/05/10 10:41:22;;;;;;;7.18;6.88;;;;;;;20.87;29.95;101421.72;5028958;28;20025;-63
2022/05/10 10:43:54;;;;;;;7.05;6.75;;;;;;;21.37;29.74;101415.44;5028885;28;20057;-64
2022/05/10 10:46:25;;;;;;;6.90;6.60;;;;;;;21.77;28.19;101422.03;5027320;28;20031;-63
2022/05/10 10:48:56;;;;;;;7.22;6.93;;;;;;;20.40;28.97;101423.06;5030847;28;20044;-64
2022/05/10 10:51:28;;;;;;;6.63;6.32;;;;;;;21.02;29.77;101415.97;5032638;28;20554;-64
2022/05/10 10:53:54;;;;;;;6.60;6.30;;;;;;;21.97;29.24;101407.44;5030175;28;20183;-64
2022/05/10 10:56:31;;;;;;;7.00;6.70;;;;;;;20.29;29.59;101413.00;5028276;28;21530;-64
2022/05/10 10:59:18;;;;;;;6.90;6.60;;;;;;;21.07;29.89;101399.94;5027987;28;20099;-64
2022/05/10 11:01:44;;;;;;;6.68;6.38;;;;;;;22.16;29.15;101400.94;5031842;28;20107;-63
2022/05/10 11:04:38;;;;;;;6.78;6.47;;;;;;;21.67;28.51;101397.44;5029373;28;20477;-63
2022/05/10 11:07:26;;;;;;;7.00;6.70;;;;;;;21.70;28.68;101391.56;5031607;28;20053;-62
2022/05/10 11:10:23;;;;;;;7.00;6.70;;;;;;;20.64;31.15;101398.06;5022486;28;20492;-63
2022/05/10 11:13:05;;;;;;;6.75;6.45;;;;;;;20.12;30.88;101391.13;5029392;28;20489;-64
2022/05/10 11:15:53;;;;;;;6.65;6.35;;;;;;;20.48;30.70;101381.59;5031346;28;20078;-63
2022/05/10 11:18:42;;;;;;;7.35;7.05;;;;;;;19.82;32.85;101377.41;5021687;28;20045;-63
2022/05/10 11:21:39;;;;;;;6.93;6.63;;;;;;;21.11;32.01;101370.66;5014011;28;20382;-63
2022/05/10 11:24:39;;;;;;;6.72;6.43;;;;;;;21.32;31.00;101361.31;5019031;28;20512;-63
2022/05/10 11:27:07;;;;;;;6.70;6.40;;;;;;;21.76;30.55;101368.25;5010644;28;20107;-63
2022/05/10 11:29:49;;;;;;;6.75;6.45;;;;;;;19.54;33.61;101369.66;5030876;28;20079;-64
2022/05/10 11:32:45;;;;;;;6.60;6.30;;;;;;;20.58;31.79;101371.97;5027566;28;20083;-63
2022/05/10 11:35:37;;;;;;;7.00;6.70;;;;;;;20.34;32.92;101364.66;5029308;28;20484;-63
2022/05/10 11:38:14;;;;;;;6.88;6.57;;;;;;;19.35;34.42;101355.22;5027351;28;20022;-63
2022/05/10 11:41:13;;;;;;;6.75;6.45;;;;;;;20.94;33.06;101356.94;5026173;28;20104;-64
2022/05/10 11:43:53;;;;;;;6.97;6.68;;;;;;;21.31;32.48;101354.28;5018673;28;20124;-62
2022/05/10 11:47:04;;;;;;;7.97;7.68;;;;;;;21.08;33.56;101346.78;5027469;28;20030;-63
2022/05/10 11:49:51;;;;;;;6.80;6.50;;;;;;;21.16;33.63;101343.81;5002381;28;20049;-63
2022/05/10 11:52:56;;;;;;;6.70;6.40;;;;;;;21.51;32.54;101344.88;5007134;28;20029;-63
2022/05/10 11:55:23;;;;;;;7.15;6.85;;;;;;;21.23;32.86;101344.56;5021595;28;20048;-64